createdAt,value
2023-04-02T00:03:10.441Z,9.40
2023-04-02T00:05:50.137Z,9.40
2023-04-02T00:08:45.735Z,9.40
2023-04-02T00:11:38.933Z,9.30
2023-04-02T00:14:16.423Z,9.30
2023-04-02T00:16:44.513Z,9.30
2023-04-02T00:19:22.199Z,9.30
2023-04-02T00:21:51.207Z,9.30
2023-04-02T00:24:21.716Z,9.20
2023-04-02T00:26:51.578Z,9.20
2023-04-02T00:31:54.479Z,9.20
2023-04-02T00:34:28.072Z,9.20
2023-04-02T00:39:29.241Z,9.20
2023-04-02T00:42:04.940Z,9.20
2023-04-02T00:44:44.309Z,9.20
2023-04-02T00:47:27.738Z,9.20
2023-04-02T00:50:24.732Z,9.20
2023-04-02T00:52:53.638Z,9.30
2023-04-02T00:55:40.001Z,9.40
2023-04-02T00:58:28.292Z,9.40
2023-04-02T01:08:56.781Z,9.20
2023-04-02T01:14:58.368Z,9.10
2023-04-02T01:18:31.418Z,9.10
2023-04-02T01:21:34.272Z,9.00
2023-04-02T01:24:09.876Z,9.00
2023-04-02T01:26:46.570Z,9.00
2023-04-02T01:29:33.441Z,9.10
2023-04-02T01:32:11.795Z,9.00
2023-04-02T01:34:39.791Z,9.00
2023-04-02T01:37:32.460Z,9.00
2023-04-02T01:40:20.811Z,9.00
2023-04-02T01:43:20.559Z,8.90
2023-04-02T01:48:24.824Z,8.90
2023-04-02T01:50:55.172Z,8.90
2023-04-02T01:53:26.179Z,8.90
2023-04-02T01:56:00.648Z,8.80
2023-04-02T01:58:34.339Z,8.90
2023-04-02T02:01:06.819Z,8.70
2023-04-02T02:03:34.771Z,8.90
2023-04-02T02:06:03.441Z,8.90
2023-04-02T02:11:05.701Z,8.80
2023-04-02T02:16:01.995Z,8.80
2023-04-02T02:20:58.907Z,8.80
2023-04-02T02:23:29.298Z,8.80
2023-04-02T02:28:36.632Z,8.80
2023-04-02T02:31:13.684Z,8.80
2023-04-02T02:33:50.442Z,8.70
2023-04-02T02:37:07.680Z,8.70
2023-04-02T02:39:44.446Z,8.60
2023-04-02T02:44:56.701Z,8.70
2023-04-02T02:47:35.512Z,8.80
2023-04-02T02:50:08.046Z,8.60
2023-04-02T02:52:39.953Z,8.60
2023-04-02T02:55:16.984Z,8.60
2023-04-02T02:57:59.595Z,8.50
2023-04-02T03:02:57.142Z,8.50
2023-04-02T03:05:27.884Z,8.50
2023-04-02T03:07:57.601Z,8.50
2023-04-02T03:13:33.378Z,8.50
2023-04-02T03:16:15.459Z,8.50
2023-04-02T03:21:40.117Z,8.50
2023-04-02T03:24:32.706Z,8.50
2023-04-02T03:27:12.146Z,8.50
2023-04-02T03:29:53.401Z,8.50
2023-04-02T03:32:32.507Z,8.50
2023-04-02T03:35:27.619Z,8.40
2023-04-02T03:38:19.758Z,8.50
2023-04-02T03:41:07.882Z,8.40
2023-04-02T03:43:46.873Z,8.40
2023-04-02T03:46:25.309Z,8.40
2023-04-02T03:48:59.942Z,8.40
2023-04-02T03:52:05.010Z,8.40
2023-04-02T03:57:00.593Z,8.50
2023-04-02T03:59:54.807Z,8.50
2023-04-02T04:05:26.634Z,8.40
2023-04-02T04:08:01.000Z,8.40
2023-04-02T04:10:29.434Z,8.30
2023-04-02T04:13:09.121Z,8.40
2023-04-02T04:16:00.417Z,8.40
2023-04-02T04:18:57.490Z,8.40
2023-04-02T04:21:37.162Z,8.40
2023-04-02T04:24:13.007Z,8.50
2023-04-02T04:27:04.066Z,8.30
2023-04-02T04:32:21.269Z,8.40
2023-04-02T04:34:53.782Z,8.40
2023-04-02T04:37:29.308Z,8.40
2023-04-02T04:40:06.630Z,8.40
2023-04-02T04:42:36.893Z,8.40
2023-04-02T04:47:39.727Z,8.40
2023-04-02T04:50:22.376Z,8.40
2023-04-02T04:52:49.461Z,8.30
2023-04-02T04:55:42.699Z,8.40
2023-04-02T04:58:25.385Z,8.40
2023-04-02T05:01:04.329Z,8.30
2023-04-02T05:03:40.246Z,8.40
2023-04-02T05:06:34.955Z,8.40
2023-04-02T05:09:39.288Z,8.30
2023-04-02T05:15:09.827Z,8.40
2023-04-02T05:17:50.637Z,8.40
2023-04-02T05:20:28.121Z,8.40
2023-04-02T05:23:04.160Z,8.40
2023-04-02T05:25:33.273Z,8.40
2023-04-02T05:28:15.409Z,8.40
2023-04-02T05:31:06.158Z,8.40
2023-04-02T05:33:37.505Z,8.40
2023-04-02T05:36:21.739Z,8.40
2023-04-02T05:38:51.412Z,8.40
2023-04-02T05:41:42.295Z,8.40
2023-04-02T05:44:28.889Z,8.40
2023-04-02T05:47:19.340Z,8.40
2023-04-02T05:50:10.218Z,8.40
2023-04-02T05:52:46.038Z,8.40
2023-04-02T05:58:07.399Z,8.30
2023-04-02T06:03:46.532Z,8.50
2023-04-02T06:06:29.665Z,8.40
2023-04-02T06:09:05.587Z,8.50
2023-04-02T06:12:41.008Z,8.50
2023-04-02T06:15:21.539Z,8.60
2023-04-02T06:18:00.278Z,8.60
2023-04-02T06:20:28.276Z,8.60
2023-04-02T06:23:07.380Z,8.60
2023-04-02T06:25:42.110Z,8.70
2023-04-02T06:28:26.713Z,8.70
2023-04-02T06:30:58.436Z,8.70
2023-04-02T06:35:54.872Z,8.80
2023-04-02T06:38:27.507Z,9.00
2023-04-02T06:41:03.822Z,8.90
2023-04-02T06:43:43.263Z,9.00
2023-04-02T06:46:20.053Z,9.00
2023-04-02T06:48:48.569Z,9.10
2023-04-02T06:51:19.092Z,9.10
2023-04-02T06:53:51.762Z,9.20
2023-04-02T06:56:42.361Z,9.20
2023-04-02T06:59:12.770Z,9.30
2023-04-02T07:01:51.603Z,9.30
2023-04-02T07:04:20.988Z,9.30
2023-04-02T07:14:13.146Z,9.40
2023-04-02T07:16:42.399Z,9.50
2023-04-02T07:19:20.087Z,9.50
2023-04-02T07:21:47.992Z,9.50
2023-04-02T07:29:16.111Z,9.80
2023-04-02T07:51:26.302Z,10.10
2023-04-02T07:53:56.500Z,10.30
2023-04-02T07:56:25.355Z,10.30
2023-04-02T08:01:28.114Z,10.40
2023-04-02T08:03:57.594Z,10.60
2023-04-02T08:18:43.148Z,11.10
2023-04-02T08:21:11.642Z,10.80
2023-04-02T08:23:38.638Z,11.20
2023-04-02T08:26:06.674Z,11.30
2023-04-02T08:31:02.430Z,11.20
2023-04-02T08:40:56.820Z,11.50
2023-04-02T08:43:48.802Z,11.60
2023-04-02T08:46:42.506Z,11.70
2023-04-02T08:49:43.691Z,11.60
2023-04-02T08:52:27.928Z,11.80
2023-04-02T09:00:23.184Z,11.80
2023-04-02T09:03:01.279Z,12.00
2023-04-02T09:05:35.070Z,12.00
2023-04-02T09:08:07.915Z,11.90
2023-04-02T09:10:44.638Z,11.90
2023-04-02T09:13:27.293Z,12.10
2023-04-02T09:16:08.393Z,12.30
2023-04-02T09:18:36.791Z,14.80
2023-04-02T09:21:49.288Z,12.50
2023-04-02T09:26:43.692Z,12.20
2023-04-02T09:31:48.074Z,12.40
2023-04-02T09:34:32.479Z,12.30
2023-04-02T09:37:25.910Z,12.40
2023-04-02T09:40:11.595Z,12.40
2023-04-02T09:45:34.360Z,12.30
2023-04-02T09:48:02.549Z,12.40
2023-04-02T09:50:33.908Z,12.30
2023-04-02T09:53:34.196Z,12.10
2023-04-02T09:56:13.151Z,12.00
2023-04-02T09:58:42.348Z,12.10
2023-04-02T10:01:33.362Z,12.00
2023-04-02T10:04:02.004Z,12.00
2023-04-02T10:06:31.177Z,12.00
2023-04-02T10:08:58.414Z,12.10
2023-04-02T10:11:46.201Z,11.90
2023-04-02T10:14:23.298Z,11.90
2023-04-02T10:16:54.373Z,11.80
2023-04-02T10:19:30.840Z,11.90
2023-04-02T10:22:02.204Z,11.90
2023-04-02T10:27:39.841Z,10.80
2023-04-02T10:30:45.253Z,10.50
2023-04-02T10:33:27.634Z,10.50
2023-04-02T10:36:08.588Z,10.30
2023-04-02T10:41:18.223Z,10.10
2023-04-02T10:46:37.878Z,9.80
2023-04-02T10:49:22.256Z,9.90
2023-04-02T10:52:25.706Z,7.20
2023-04-02T10:54:57.332Z,9.80
2023-04-02T10:57:54.388Z,9.90
2023-04-02T11:00:28.130Z,9.80
2023-04-02T11:03:15.133Z,9.80
2023-04-02T11:05:47.755Z,9.60
2023-04-02T11:08:47.877Z,9.50
2023-04-02T11:14:05.100Z,9.50
2023-04-02T11:19:15.645Z,9.10
2023-04-02T11:22:01.838Z,9.10
2023-04-02T11:24:30.388Z,9.00
2023-04-02T11:27:14.459Z,9.10
2023-04-02T11:30:16.315Z,9.00
2023-04-02T11:32:51.809Z,8.80
2023-04-02T11:35:30.907Z,9.00
2023-04-02T11:38:09.642Z,9.10
2023-04-02T11:40:59.475Z,8.90
2023-04-02T11:43:36.128Z,8.90
2023-04-02T11:46:42.274Z,9.20
2023-04-02T11:49:40.259Z,9.00
2023-04-02T11:52:45.803Z,9.00
2023-04-02T11:55:31.314Z,8.80
2023-04-02T11:58:39.000Z,8.80
2023-04-02T12:04:13.417Z,8.50
2023-04-02T12:07:07.543Z,8.60
2023-04-02T12:12:39.012Z,8.50
2023-04-02T12:15:35.451Z,8.50
2023-04-02T12:18:26.421Z,8.50
2023-04-02T12:20:56.923Z,8.40
2023-04-02T12:23:34.088Z,8.20
2023-04-02T12:26:08.770Z,8.40
2023-04-02T12:31:18.507Z,8.30
2023-04-02T12:38:56.102Z,8.20
2023-04-02T12:41:31.258Z,8.20
2023-04-02T12:43:59.812Z,8.30
2023-04-02T12:46:28.537Z,8.40
2023-04-02T12:49:07.862Z,8.30
2023-04-02T12:51:36.813Z,8.40
2023-04-02T12:56:32.263Z,8.30
2023-04-02T12:59:00.821Z,8.30
2023-04-02T13:01:31.915Z,8.30
2023-04-02T13:04:12.889Z,8.30
2023-04-02T13:06:42.535Z,8.20
2023-04-02T13:09:29.447Z,8.20
2023-04-02T13:14:26.021Z,8.10
2023-04-02T13:19:35.067Z,8.10
2023-04-02T13:22:03.865Z,7.90
2023-04-02T13:24:33.146Z,7.90
2023-04-02T13:27:02.976Z,7.90
2023-04-02T13:29:35.916Z,8.00
2023-04-02T13:32:12.406Z,8.00
2023-04-02T13:42:04.402Z,8.00
2023-04-02T13:44:34.477Z,8.00
2023-04-02T13:47:01.968Z,8.00
2023-04-02T13:49:29.940Z,8.00
2023-04-02T13:52:05.481Z,7.90
2023-04-02T13:54:47.121Z,7.90
2023-04-02T14:02:18.276Z,7.80
2023-04-02T14:04:51.042Z,7.70
2023-04-02T14:07:58.675Z,7.70
2023-04-02T14:10:37.593Z,7.70
2023-04-02T14:13:51.192Z,7.70
2023-04-02T14:16:51.946Z,7.70
2023-04-02T14:19:51.127Z,7.70
2023-04-02T14:23:13.586Z,7.60
2023-04-02T14:26:28.726Z,7.50
2023-04-02T14:29:09.581Z,7.60
2023-04-02T14:31:47.506Z,7.60
2023-04-02T14:34:51.594Z,7.60
2023-04-02T14:38:03.137Z,7.60
2023-04-02T14:40:51.703Z,7.60
2023-04-02T14:46:02.983Z,7.60
2023-04-02T14:48:56.590Z,7.60
2023-04-02T14:51:32.194Z,7.60
2023-04-02T14:54:27.207Z,7.50
2023-04-02T14:57:05.800Z,7.30
2023-04-02T14:59:57.167Z,7.20
2023-04-02T15:02:53.420Z,7.30
2023-04-02T15:05:44.364Z,7.20
2023-04-02T15:08:43.571Z,7.30
2023-04-02T15:11:20.079Z,7.30
2023-04-02T15:14:23.466Z,7.30
2023-04-02T15:16:50.595Z,7.30
2023-04-02T15:19:19.157Z,7.20
2023-04-02T15:24:42.662Z,7.30
2023-04-02T15:27:39.435Z,7.30
2023-04-02T15:30:24.230Z,7.20
2023-04-02T15:38:18.344Z,7.20
2023-04-02T15:40:55.356Z,7.40
2023-04-02T15:43:44.741Z,7.20
2023-04-02T15:47:08.951Z,7.20
2023-04-02T15:50:00.638Z,7.20
2023-04-02T15:52:54.859Z,7.20
2023-04-02T15:55:57.263Z,7.10
2023-04-02T15:58:55.062Z,7.10
2023-04-02T16:02:18.453Z,7.20
2023-04-02T16:04:54.152Z,7.20
2023-04-02T16:10:30.623Z,7.20
2023-04-02T16:15:43.885Z,7.20
2023-04-02T16:18:26.229Z,7.10
2023-04-02T16:20:56.704Z,7.00
2023-04-02T16:23:42.849Z,6.90
2023-04-02T16:26:23.649Z,6.90
2023-04-02T16:29:06.266Z,6.90
2023-04-02T16:32:05.173Z,6.90
2023-04-02T16:35:22.245Z,6.80
2023-04-02T16:38:35.359Z,6.70
2023-04-02T16:41:38.995Z,6.80
2023-04-02T16:44:30.384Z,6.70
2023-04-02T16:47:44.559Z,6.70
2023-04-02T16:50:38.280Z,6.70
2023-04-02T16:54:00.370Z,6.70
2023-04-02T16:59:34.554Z,6.60
2023-04-02T17:02:31.573Z,6.60
2023-04-02T17:05:12.845Z,6.40
2023-04-02T17:13:41.912Z,6.40
2023-04-02T17:16:46.351Z,6.40
2023-04-02T17:19:16.680Z,6.30
2023-04-02T17:21:53.300Z,6.30
2023-04-02T17:24:51.112Z,6.30
2023-04-02T17:27:28.585Z,6.30
2023-04-02T17:30:04.344Z,6.20
2023-04-02T17:32:33.839Z,6.20
2023-04-02T17:35:27.952Z,6.10
2023-04-02T17:38:15.758Z,6.10
2023-04-02T17:41:22.574Z,6.10
2023-04-02T17:44:50.483Z,6.10
2023-04-02T17:47:26.624Z,6.10
2023-04-02T17:50:12.282Z,6.10
2023-04-02T17:55:31.361Z,6.00
2023-04-02T18:03:37.556Z,6.00
2023-04-02T18:06:34.806Z,6.00
2023-04-02T18:09:33.367Z,5.90
2023-04-02T18:14:38.608Z,5.90
2023-04-02T18:17:20.292Z,5.90
2023-04-02T18:20:27.826Z,5.90
2023-04-02T18:23:22.669Z,5.80
2023-04-02T18:26:12.771Z,5.80
2023-04-02T18:31:39.918Z,5.80
2023-04-02T18:37:15.350Z,5.70
2023-04-02T18:40:22.221Z,5.80
2023-04-02T18:45:31.783Z,5.80
2023-04-02T18:50:36.370Z,5.70
2023-04-02T18:53:16.921Z,5.70
2023-04-02T18:56:10.762Z,5.70
2023-04-02T18:59:12.263Z,5.70
2023-04-02T19:01:47.254Z,5.70
2023-04-02T19:04:26.697Z,5.70
2023-04-02T19:07:09.027Z,5.70
2023-04-02T19:09:42.465Z,5.70
2023-04-02T19:12:19.530Z,5.70
2023-04-02T19:14:50.994Z,5.70
2023-04-02T19:17:39.002Z,5.60
2023-04-02T19:20:25.616Z,5.70
2023-04-02T19:25:54.111Z,5.60
2023-04-02T19:28:59.132Z,5.70
2023-04-02T19:31:29.124Z,5.70
2023-04-02T19:34:09.136Z,5.70
2023-04-02T19:36:55.427Z,5.60
2023-04-02T19:39:51.037Z,5.60
2023-04-02T19:42:41.991Z,5.60
2023-04-02T19:45:50.898Z,5.60
2023-04-02T19:48:38.201Z,5.60
2023-04-02T19:56:01.235Z,5.40
2023-04-02T19:58:34.513Z,5.50
2023-04-02T20:10:58.618Z,5.50
2023-04-02T20:20:49.751Z,5.30
2023-04-02T20:23:17.595Z,5.40
2023-04-02T20:25:46.926Z,5.40
2023-04-02T20:30:42.201Z,5.40
2023-04-02T20:40:34.346Z,5.40
2023-04-02T20:47:57.679Z,5.30
2023-04-02T20:50:24.903Z,5.30
2023-04-02T20:52:52.656Z,5.30
2023-04-02T21:10:05.650Z,5.30
2023-04-02T21:29:53.130Z,5.20
2023-04-02T22:04:24.912Z,5.10
2023-04-02T22:06:53.480Z,5.00
2023-04-02T22:09:24.805Z,5.10
2023-04-02T22:11:55.655Z,5.00
2023-04-02T22:14:23.855Z,5.00
2023-04-02T22:24:18.885Z,5.00
2023-04-02T22:26:46.850Z,4.90
2023-04-02T22:39:07.105Z,4.90
2023-04-02T22:51:27.918Z,4.90
2023-04-02T22:53:56.488Z,4.80
2023-04-02T22:56:29.743Z,4.90
2023-04-02T23:01:29.258Z,5.00
2023-04-02T23:06:24.870Z,4.90
2023-04-02T23:11:26.031Z,5.00
2023-04-02T23:13:55.813Z,5.00
2023-04-02T23:16:23.138Z,4.90
2023-04-02T23:18:51.264Z,4.90
2023-04-02T23:21:20.900Z,4.90
2023-04-02T23:23:48.982Z,4.90
2023-04-02T23:26:21.210Z,4.90
2023-04-02T23:31:20.486Z,4.60
2023-04-02T23:36:21.535Z,4.50
2023-04-02T23:41:17.434Z,4.30
2023-04-02T23:51:07.513Z,4.10
